createdAt,value
2019-06-20T00:01:55.587Z,9.75
2019-06-20T00:04:28.306Z,9.98
2019-06-20T00:07:00.781Z,10.03
2019-06-20T00:09:33.019Z,9.60
2019-06-20T00:12:06.189Z,8.90
2019-06-20T00:14:45.228Z,9.20
2019-06-20T00:17:19.337Z,8.65
2019-06-20T00:19:53.119Z,9.23
2019-06-20T00:22:26.735Z,9.28
2019-06-20T00:25:02.787Z,9.28
2019-06-20T00:27:33.898Z,9.38
2019-06-20T00:30:10.065Z,8.58
2019-06-20T00:32:43.355Z,8.40
2019-06-20T00:35:15.786Z,7.67
2019-06-20T00:37:48.062Z,7.72
2019-06-20T00:40:20.660Z,6.72
2019-06-20T00:42:53.144Z,7.05
2019-06-20T00:45:26.689Z,6.35
2019-06-20T00:48:00.401Z,5.97
2019-06-20T00:50:33.083Z,5.75
2019-06-20T00:53:05.837Z,4.87
2019-06-20T00:55:38.811Z,5.53
2019-06-20T00:58:11.448Z,5.50
2019-06-20T01:00:44.050Z,5.17
2019-06-20T01:03:17.342Z,5.03
2019-06-20T01:05:50.528Z,5.00
2019-06-20T01:08:23.136Z,5.22
2019-06-20T01:10:55.723Z,5.22
2019-06-20T01:13:33.995Z,4.85
2019-06-20T01:16:07.026Z,4.53
2019-06-20T01:18:39.938Z,4.90
2019-06-20T01:21:13.757Z,4.80
2019-06-20T01:23:47.208Z,5.10
2019-06-20T01:26:20.980Z,4.95
2019-06-20T01:28:53.595Z,4.92
2019-06-20T01:31:25.994Z,5.12
2019-06-20T01:33:59.514Z,4.80
2019-06-20T01:36:31.874Z,4.95
2019-06-20T01:39:04.695Z,5.15
2019-06-20T01:41:37.449Z,6.15
2019-06-20T01:44:11.432Z,12.10
2019-06-20T01:46:44.228Z,5.70
2019-06-20T01:49:17.020Z,5.83
2019-06-20T01:51:49.516Z,5.42
2019-06-20T01:54:22.783Z,5.87
2019-06-20T01:56:56.288Z,6.55
2019-06-20T01:59:29.238Z,6.87
2019-06-20T02:02:01.676Z,5.90
2019-06-20T02:04:34.825Z,6.28
2019-06-20T02:07:08.344Z,6.05
2019-06-20T02:09:42.062Z,6.00
2019-06-20T02:12:14.719Z,6.47
2019-06-20T02:14:48.034Z,6.00
2019-06-20T02:19:52.550Z,6.60
2019-06-20T02:22:25.634Z,5.75
2019-06-20T02:24:57.911Z,6.03
2019-06-20T02:27:30.786Z,6.62
2019-06-20T02:30:04.180Z,6.65
2019-06-20T02:32:36.982Z,5.75
2019-06-20T02:35:09.351Z,6.05
2019-06-20T02:37:48.105Z,5.70
2019-06-20T02:40:20.657Z,6.12
2019-06-20T02:42:54.073Z,6.70
2019-06-20T02:45:26.574Z,6.55
2019-06-20T02:47:59.475Z,6.87
2019-06-20T02:50:31.819Z,6.17
2019-06-20T02:53:04.962Z,7.05
2019-06-20T02:55:37.508Z,6.00
2019-06-20T02:58:10.307Z,6.15
2019-06-20T03:00:44.249Z,6.25
2019-06-20T03:03:16.908Z,6.62
2019-06-20T03:05:49.709Z,6.03
2019-06-20T03:08:23.101Z,5.70
2019-06-20T03:10:56.730Z,5.92
2019-06-20T03:13:29.457Z,5.67
2019-06-20T03:16:02.827Z,5.50
2019-06-20T03:18:35.896Z,5.40
2019-06-20T03:21:09.093Z,5.67
2019-06-20T03:23:42.905Z,5.65
2019-06-20T03:26:16.050Z,5.08
2019-06-20T03:28:48.713Z,5.10
2019-06-20T03:31:22.596Z,5.25
2019-06-20T03:33:55.693Z,5.92
2019-06-20T03:36:28.688Z,5.92
2019-06-20T03:39:01.616Z,7.00
2019-06-20T03:41:36.435Z,6.20
2019-06-20T03:44:09.352Z,5.00
2019-06-20T03:46:41.872Z,4.92
2019-06-20T03:49:14.540Z,5.40
2019-06-20T03:51:47.524Z,5.10
2019-06-20T03:54:21.300Z,5.08
2019-06-20T03:56:54.136Z,5.03
2019-06-20T03:59:27.157Z,4.70
2019-06-20T04:02:02.196Z,5.40
2019-06-20T04:04:34.471Z,5.08
2019-06-20T04:07:06.914Z,6.42
2019-06-20T04:09:39.292Z,5.80
2019-06-20T04:12:12.764Z,4.80
2019-06-20T04:14:48.176Z,5.43
2019-06-20T04:17:19.487Z,4.80
2019-06-20T04:19:53.503Z,5.70
2019-06-20T04:22:26.975Z,5.40
2019-06-20T04:27:33.674Z,5.35
2019-06-20T04:30:06.984Z,5.78
2019-06-20T04:35:13.203Z,5.87
2019-06-20T04:37:45.989Z,5.58
2019-06-20T04:40:19.017Z,5.60
2019-06-20T04:42:51.413Z,5.50
2019-06-20T04:45:35.276Z,5.40
2019-06-20T04:48:03.969Z,4.50
2019-06-20T04:50:36.915Z,4.85
2019-06-20T04:53:09.271Z,4.80
2019-06-20T04:55:46.017Z,5.10
2019-06-20T04:58:19.711Z,5.15
2019-06-20T05:00:52.376Z,4.95
2019-06-20T05:03:25.616Z,4.97
2019-06-20T05:05:58.044Z,5.05
2019-06-20T05:08:30.453Z,4.78
2019-06-20T05:11:04.258Z,5.08
2019-06-20T05:13:38.603Z,5.12
2019-06-20T05:16:10.467Z,7.10
2019-06-20T05:18:44.070Z,4.37
2019-06-20T05:21:16.849Z,5.45
2019-06-20T05:23:53.368Z,5.08
2019-06-20T05:26:27.710Z,5.20
2019-06-20T05:29:05.180Z,4.78
2019-06-20T05:31:35.902Z,4.65
2019-06-20T05:34:09.901Z,4.55
2019-06-20T05:36:43.225Z,5.05
2019-06-20T05:39:17.702Z,4.50
2019-06-20T05:41:51.755Z,4.80
2019-06-20T05:44:25.381Z,5.70
2019-06-20T05:47:11.869Z,4.65
2019-06-20T05:49:32.078Z,5.42
2019-06-20T05:52:05.352Z,4.10
2019-06-20T05:54:37.863Z,4.20
2019-06-20T05:57:10.407Z,4.40
2019-06-20T05:59:43.445Z,4.28
2019-06-20T06:02:16.674Z,4.50
2019-06-20T06:04:51.148Z,5.25
2019-06-20T06:07:23.747Z,4.47
2019-06-20T06:09:56.149Z,4.65
2019-06-20T06:12:28.804Z,4.58
2019-06-20T06:15:01.209Z,4.12
2019-06-20T06:17:33.782Z,3.80
2019-06-20T06:20:07.566Z,3.90
2019-06-20T06:22:43.696Z,4.03
2019-06-20T06:25:15.017Z,3.50
2019-06-20T06:27:47.683Z,3.90
2019-06-20T06:30:22.212Z,3.50
2019-06-20T06:32:57.546Z,4.33
2019-06-20T06:35:30.232Z,4.13
2019-06-20T06:38:03.448Z,3.37
2019-06-20T06:40:37.021Z,3.45
2019-06-20T06:43:11.732Z,3.47
2019-06-20T06:45:45.883Z,3.77
2019-06-20T06:48:20.599Z,3.47
2019-06-20T06:50:55.060Z,4.12
2019-06-20T06:53:27.425Z,4.17
2019-06-20T06:56:00.671Z,3.90
2019-06-20T06:58:33.642Z,4.33
2019-06-20T07:01:10.226Z,4.97
2019-06-20T07:03:42.130Z,4.78
2019-06-20T07:06:15.255Z,4.58
2019-06-20T07:08:50.415Z,4.70
2019-06-20T07:11:25.831Z,4.30
2019-06-20T07:13:59.124Z,3.70
2019-06-20T07:16:33.875Z,4.05
2019-06-20T07:19:07.442Z,3.92
2019-06-20T07:21:41.810Z,4.42
2019-06-20T07:24:16.297Z,3.87
2019-06-20T07:26:49.069Z,3.40
2019-06-20T07:29:23.731Z,4.30
2019-06-20T07:31:56.886Z,4.08
2019-06-20T07:37:03.048Z,5.37
2019-06-20T07:39:38.922Z,5.20
2019-06-20T07:42:11.576Z,3.85
2019-06-20T07:44:44.256Z,3.77
2019-06-20T07:47:18.204Z,3.50
2019-06-20T07:49:50.948Z,3.70
2019-06-20T07:52:24.155Z,3.52
2019-06-20T07:54:56.714Z,3.65
2019-06-20T07:57:29.747Z,3.58
2019-06-20T08:00:03.132Z,3.83
2019-06-20T08:02:37.447Z,3.70
2019-06-20T08:05:11.624Z,3.65
2019-06-20T08:07:45.283Z,3.33
2019-06-20T08:10:19.384Z,3.67
2019-06-20T08:12:54.738Z,3.60
2019-06-20T08:15:30.292Z,3.60
2019-06-20T08:18:02.609Z,3.75
2019-06-20T08:20:35.407Z,3.55
2019-06-20T08:23:08.804Z,4.28
2019-06-20T08:25:44.327Z,4.12
2019-06-20T08:28:23.477Z,3.77
2019-06-20T08:30:57.835Z,3.40
2019-06-20T08:33:35.064Z,3.47
2019-06-20T08:36:10.928Z,3.65
2019-06-20T08:38:44.725Z,3.85
2019-06-20T08:41:17.922Z,3.75
2019-06-20T08:43:51.297Z,3.80
2019-06-20T08:46:24.697Z,3.17
2019-06-20T08:48:59.941Z,3.47
2019-06-20T08:51:33.167Z,3.15
2019-06-20T08:54:08.547Z,3.62
2019-06-20T08:56:42.231Z,3.70
2019-06-20T08:59:24.321Z,3.67
2019-06-20T09:01:50.413Z,3.70
2019-06-20T09:04:22.975Z,4.17
2019-06-20T09:06:57.567Z,3.70
2019-06-20T09:09:33.812Z,3.80
2019-06-20T09:12:13.280Z,4.25
2019-06-20T09:14:47.060Z,4.05
2019-06-20T09:17:20.663Z,4.17
2019-06-20T09:19:54.340Z,4.08
2019-06-20T09:22:28.013Z,4.10
2019-06-20T09:25:02.946Z,3.63
2019-06-20T09:27:35.847Z,4.50
2019-06-20T09:30:11.693Z,3.80
2019-06-20T09:32:47.061Z,3.98
2019-06-20T09:35:23.129Z,3.55
2019-06-20T09:37:57.075Z,4.05
2019-06-20T09:40:30.424Z,3.63
2019-06-20T09:43:05.510Z,4.20
2019-06-20T09:45:39.021Z,3.90
2019-06-20T09:48:11.538Z,4.00
2019-06-20T09:50:44.369Z,4.42
2019-06-20T09:53:19.076Z,4.83
2019-06-20T09:55:53.727Z,4.10
2019-06-20T09:58:26.719Z,4.00
2019-06-20T10:01:01.269Z,3.80
2019-06-20T10:03:34.695Z,3.97
2019-06-20T10:06:13.897Z,4.90
2019-06-20T10:08:43.941Z,4.33
2019-06-20T10:11:17.488Z,4.40
2019-06-20T10:13:52.170Z,4.42
2019-06-20T10:16:24.874Z,4.45
2019-06-20T10:18:58.623Z,5.03
2019-06-20T10:21:31.167Z,6.80
2019-06-20T10:24:04.705Z,4.97
2019-06-20T10:26:38.138Z,4.03
2019-06-20T10:29:13.214Z,4.05
2019-06-20T10:31:47.408Z,4.25
2019-06-20T10:34:21.344Z,4.05
2019-06-20T10:36:56.981Z,3.87
2019-06-20T10:39:30.455Z,3.65
2019-06-20T10:42:04.274Z,8.40
2019-06-20T10:44:37.576Z,4.08
2019-06-20T10:47:10.301Z,4.25
2019-06-20T10:49:43.437Z,3.65
2019-06-20T10:54:49.762Z,4.37
2019-06-20T10:57:23.368Z,4.45
2019-06-20T10:59:56.064Z,4.13
2019-06-20T11:02:28.528Z,4.00
2019-06-20T11:05:02.086Z,3.95
2019-06-20T11:07:37.256Z,3.90
2019-06-20T11:10:12.580Z,4.10
2019-06-20T11:12:50.165Z,3.70
2019-06-20T11:15:19.217Z,3.72
2019-06-20T11:17:55.357Z,4.03
2019-06-20T11:20:27.900Z,3.58
2019-06-20T11:23:00.420Z,4.08
2019-06-20T11:25:33.073Z,3.67
2019-06-20T11:28:06.323Z,4.05
2019-06-20T11:30:53.024Z,4.03
2019-06-20T11:33:16.079Z,3.75
2019-06-20T11:35:49.536Z,4.00
2019-06-20T11:38:22.972Z,4.35
2019-06-20T11:40:57.461Z,4.15
2019-06-20T11:43:30.020Z,4.40
2019-06-20T11:46:06.102Z,4.05
2019-06-20T11:48:38.962Z,4.00
2019-06-20T11:51:14.367Z,4.70
2019-06-20T11:53:47.183Z,4.40
2019-06-20T11:56:21.472Z,3.83
2019-06-20T12:01:33.085Z,4.12
2019-06-20T12:04:05.799Z,3.90
2019-06-20T12:06:40.145Z,4.15
2019-06-20T12:09:13.433Z,4.95
2019-06-20T12:11:47.034Z,4.35
2019-06-20T12:14:21.098Z,4.55
2019-06-20T12:16:53.517Z,4.47
2019-06-20T12:19:25.996Z,3.98
2019-06-20T12:21:58.580Z,4.37
2019-06-20T12:24:31.926Z,4.30
2019-06-20T12:27:05.269Z,4.40
2019-06-20T12:29:40.263Z,4.03
2019-06-20T12:32:15.044Z,4.12
2019-06-20T12:34:50.009Z,4.42
2019-06-20T12:37:24.870Z,4.60
2019-06-20T12:39:58.638Z,3.62
2019-06-20T12:42:32.593Z,4.17
2019-06-20T12:45:06.233Z,4.10
2019-06-20T12:47:40.225Z,4.30
2019-06-20T12:50:15.013Z,4.62
2019-06-20T12:52:47.613Z,4.65
2019-06-20T12:55:20.961Z,4.08
2019-06-20T12:57:54.456Z,4.55
2019-06-20T13:00:27.384Z,4.70
2019-06-20T13:02:59.901Z,4.87
2019-06-20T13:05:32.826Z,4.50
2019-06-20T13:08:05.559Z,4.35
2019-06-20T13:10:44.574Z,4.62
2019-06-20T13:13:18.176Z,4.03
2019-06-20T13:16:00.586Z,4.10
2019-06-20T13:18:36.915Z,4.42
2019-06-20T13:21:09.751Z,4.37
2019-06-20T13:23:43.210Z,4.78
2019-06-20T13:26:22.976Z,4.45
2019-06-20T13:29:03.753Z,4.20
2019-06-20T13:31:31.065Z,4.40
2019-06-20T13:34:05.068Z,5.25
2019-06-20T13:36:41.279Z,4.55
2019-06-20T13:39:15.396Z,4.42
2019-06-20T13:41:50.264Z,4.70
2019-06-20T13:44:23.919Z,4.17
2019-06-20T13:46:56.915Z,4.67
2019-06-20T13:49:30.452Z,4.60
2019-06-20T13:52:04.666Z,4.83
2019-06-20T13:57:11.096Z,4.87
2019-06-20T13:59:45.672Z,5.17
2019-06-20T14:02:20.373Z,4.67
2019-06-20T14:04:55.363Z,5.10
2019-06-20T14:07:32.664Z,5.30
2019-06-20T14:10:07.234Z,5.17
2019-06-20T14:15:11.296Z,4.90
2019-06-20T14:17:44.914Z,5.20
2019-06-20T14:20:18.620Z,5.08
2019-06-20T14:22:54.576Z,5.28
2019-06-20T14:25:30.384Z,5.25
2019-06-20T14:28:06.221Z,4.60
2019-06-20T14:30:43.284Z,4.90
2019-06-20T14:33:16.350Z,5.12
2019-06-20T14:35:51.211Z,4.90
2019-06-20T14:38:28.216Z,5.35
2019-06-20T14:41:03.182Z,4.87
2019-06-20T14:43:36.722Z,4.70
2019-06-20T14:48:46.483Z,4.35
2019-06-20T14:51:26.201Z,4.85
2019-06-20T14:54:01.856Z,4.90
2019-06-20T14:56:35.848Z,4.75
2019-06-20T14:59:12.809Z,5.50
2019-06-20T15:01:46.389Z,5.08
2019-06-20T15:04:19.296Z,5.20
2019-06-20T15:06:57.837Z,4.87
2019-06-20T15:09:36.243Z,4.90
2019-06-20T15:12:09.051Z,4.67
2019-06-20T15:14:45.903Z,4.92
2019-06-20T15:17:20.538Z,4.85
2019-06-20T15:19:56.974Z,5.00
2019-06-20T15:25:22.333Z,4.65
2019-06-20T15:27:55.360Z,4.90
2019-06-20T15:30:30.166Z,4.50
2019-06-20T15:33:09.881Z,4.30
2019-06-20T15:35:40.830Z,4.47
2019-06-20T15:38:21.714Z,4.90
2019-06-20T15:40:55.414Z,4.55
2019-06-20T15:43:30.219Z,4.72
2019-06-20T15:46:05.712Z,4.40
2019-06-20T15:48:45.127Z,4.70
2019-06-20T15:51:20.476Z,4.22
2019-06-20T15:53:56.466Z,4.72
2019-06-20T15:56:30.111Z,4.80
2019-06-20T15:59:02.786Z,5.05
2019-06-20T16:01:36.809Z,4.90
2019-06-20T16:04:11.438Z,4.60
2019-06-20T16:06:46.937Z,4.37
2019-06-20T16:09:26.967Z,5.05
2019-06-20T16:12:01.313Z,4.58
2019-06-20T16:14:34.836Z,4.20
2019-06-20T16:17:11.807Z,4.20
2019-06-20T16:19:48.288Z,4.30
2019-06-20T16:22:21.924Z,4.33
2019-06-20T16:24:56.917Z,4.47
2019-06-20T16:27:35.449Z,4.28
2019-06-20T16:30:10.586Z,4.70
2019-06-20T16:32:49.182Z,4.50
2019-06-20T16:35:25.752Z,4.45
2019-06-20T16:38:18.590Z,4.75
2019-06-20T16:41:03.575Z,4.30
2019-06-20T16:43:39.600Z,4.03
2019-06-20T16:46:14.617Z,4.40
2019-06-20T16:48:48.587Z,3.87
2019-06-20T16:51:22.591Z,4.17
2019-06-20T16:53:55.401Z,4.53
2019-06-20T16:56:30.128Z,4.33
2019-06-20T17:01:58.475Z,4.20
2019-06-20T17:04:33.061Z,4.33
2019-06-20T17:07:07.246Z,4.60
2019-06-20T17:09:44.515Z,4.28
2019-06-20T17:12:36.491Z,4.17
2019-06-20T17:15:09.594Z,4.40
2019-06-20T17:17:43.599Z,4.70
2019-06-20T17:20:17.754Z,4.40
2019-06-20T17:22:53.790Z,4.10
2019-06-20T17:25:28.464Z,4.20
2019-06-20T17:28:01.064Z,4.10
2019-06-20T17:30:33.671Z,4.37
2019-06-20T17:33:07.088Z,3.83
2019-06-20T17:35:41.577Z,3.90
2019-06-20T17:38:16.350Z,4.10
2019-06-20T17:43:31.623Z,3.80
2019-06-20T17:46:04.908Z,4.30
2019-06-20T17:48:40.601Z,4.08
2019-06-20T17:51:14.027Z,4.15
2019-06-20T17:53:49.755Z,4.03
2019-06-20T17:56:24.212Z,4.62
2019-06-20T17:58:57.040Z,4.33
2019-06-20T18:01:30.183Z,4.40
2019-06-20T18:04:13.790Z,4.35
2019-06-20T18:06:41.406Z,4.03
2019-06-20T18:09:13.917Z,3.92
2019-06-20T18:11:47.511Z,3.75
2019-06-20T18:14:22.228Z,3.92
2019-06-20T18:16:54.751Z,4.20
2019-06-20T18:19:28.245Z,4.50
2019-06-20T18:22:01.365Z,3.92
2019-06-20T18:24:35.542Z,3.98
2019-06-20T18:27:08.155Z,3.85
2019-06-20T18:29:45.160Z,3.70
2019-06-20T18:32:17.659Z,3.92
2019-06-20T18:35:01.927Z,4.22
2019-06-20T18:37:31.359Z,4.40
2019-06-20T18:40:03.129Z,4.22
2019-06-20T18:42:37.276Z,4.30
2019-06-20T18:45:10.545Z,4.47
2019-06-20T18:47:42.981Z,4.50
2019-06-20T18:50:18.410Z,4.28
2019-06-20T18:52:52.838Z,4.30
2019-06-20T18:55:26.206Z,4.50
2019-06-20T18:57:58.980Z,4.37
2019-06-20T19:00:35.035Z,4.17
2019-06-20T19:03:07.930Z,4.20
2019-06-20T19:05:41.082Z,4.00
2019-06-20T19:08:13.454Z,3.75
2019-06-20T19:10:46.803Z,4.33
2019-06-20T19:13:19.460Z,4.30
2019-06-20T19:15:52.670Z,4.40
2019-06-20T19:18:25.172Z,4.15
2019-06-20T19:20:57.602Z,4.53
2019-06-20T19:23:30.351Z,4.03
2019-06-20T19:26:03.137Z,3.95
2019-06-20T19:28:35.996Z,3.75
2019-06-20T19:31:09.951Z,3.80
2019-06-20T19:33:42.578Z,4.07
2019-06-20T19:36:15.908Z,4.08
2019-06-20T19:38:49.715Z,3.80
2019-06-20T19:41:23.169Z,3.50
2019-06-20T19:43:55.826Z,4.40
2019-06-20T19:46:28.230Z,3.65
2019-06-20T19:49:01.892Z,3.83
2019-06-20T19:51:35.348Z,3.62
2019-06-20T19:54:08.893Z,3.90
2019-06-20T19:56:41.398Z,3.52
2019-06-20T19:59:14.834Z,3.50
2019-06-20T20:01:48.098Z,3.47
2019-06-20T20:04:23.181Z,3.58
2019-06-20T20:06:55.802Z,3.52
2019-06-20T20:09:28.306Z,3.65
2019-06-20T20:12:01.412Z,3.67
2019-06-20T20:14:33.914Z,3.80
2019-06-20T20:17:06.663Z,3.40
2019-06-20T20:19:39.355Z,3.58
2019-06-20T20:22:12.740Z,3.77
2019-06-20T20:24:46.092Z,3.72
2019-06-20T20:27:18.490Z,3.70
2019-06-20T20:29:50.886Z,3.70
2019-06-20T20:32:24.167Z,3.70
2019-06-20T20:34:56.599Z,3.77
2019-06-20T20:37:29.123Z,3.77
2019-06-20T20:40:02.717Z,3.47
2019-06-20T20:42:35.193Z,3.47
2019-06-20T20:45:08.020Z,3.58
2019-06-20T20:47:40.184Z,3.60
2019-06-20T20:50:12.494Z,3.52
2019-06-20T20:52:46.658Z,3.70
2019-06-20T20:55:19.103Z,3.58
2019-06-20T20:57:51.559Z,3.70
2019-06-20T21:00:28.775Z,3.75
2019-06-20T21:03:00.985Z,3.60
2019-06-20T21:05:50.462Z,3.75
2019-06-20T21:08:08.581Z,3.77
2019-06-20T21:10:40.985Z,4.03
2019-06-20T21:13:13.493Z,4.30
2019-06-20T21:15:46.175Z,3.65
2019-06-20T21:18:18.466Z,3.80
2019-06-20T21:20:50.807Z,4.10
2019-06-20T21:23:23.285Z,3.72
2019-06-20T21:25:56.773Z,4.20
2019-06-20T21:28:29.247Z,4.07
2019-06-20T21:31:01.721Z,4.12
2019-06-20T21:33:34.352Z,4.25
2019-06-20T21:36:08.891Z,4.53
2019-06-20T21:38:41.410Z,4.33
2019-06-20T21:41:13.862Z,4.22
2019-06-20T21:43:46.338Z,4.20
2019-06-20T21:46:18.992Z,3.75
2019-06-20T21:48:52.018Z,4.40
2019-06-20T21:51:24.475Z,3.98
2019-06-20T21:53:57.198Z,4.15
2019-06-20T21:56:29.871Z,4.10
2019-06-20T21:59:02.306Z,4.30
2019-06-20T22:01:34.705Z,4.10
2019-06-20T22:04:08.181Z,4.55
2019-06-20T22:06:41.202Z,4.60
2019-06-20T22:09:15.146Z,4.20
2019-06-20T22:11:50.285Z,4.25
2019-06-20T22:14:22.713Z,4.42
2019-06-20T22:16:56.580Z,4.10
2019-06-20T22:19:31.436Z,4.67
2019-06-20T22:22:04.590Z,4.78
2019-06-20T22:24:37.402Z,4.70
2019-06-20T22:27:10.498Z,4.40
2019-06-20T22:29:42.969Z,4.40
2019-06-20T22:32:16.128Z,4.25
2019-06-20T22:34:49.256Z,4.00
2019-06-20T22:37:21.696Z,5.05
2019-06-20T22:39:55.688Z,4.35
2019-06-20T22:42:28.070Z,4.30
2019-06-20T22:45:01.483Z,4.80
2019-06-20T22:47:33.841Z,4.83
2019-06-20T22:50:07.782Z,7.17
2019-06-20T22:52:40.125Z,5.95
2019-06-20T22:55:13.052Z,5.70
2019-06-20T22:57:46.330Z,5.72
2019-06-20T23:00:18.804Z,5.55
2019-06-20T23:02:51.982Z,5.58
2019-06-20T23:05:25.364Z,5.20
2019-06-20T23:07:57.897Z,5.17
2019-06-20T23:10:30.516Z,4.95
2019-06-20T23:13:06.167Z,5.35
2019-06-20T23:15:38.981Z,5.62
2019-06-20T23:18:11.295Z,4.80
2019-06-20T23:21:03.696Z,4.87
2019-06-20T23:23:20.407Z,4.72
2019-06-20T23:25:54.399Z,4.97
2019-06-20T23:28:27.555Z,5.22
2019-06-20T23:31:00.006Z,4.90
2019-06-20T23:33:33.583Z,4.35
2019-06-20T23:36:06.650Z,4.80
2019-06-20T23:38:40.660Z,4.58
2019-06-20T23:41:13.759Z,4.60
2019-06-20T23:43:46.120Z,4.40
2019-06-20T23:46:19.214Z,4.20
2019-06-20T23:48:51.660Z,4.35
2019-06-20T23:51:25.711Z,4.58
2019-06-20T23:53:58.044Z,4.53
2019-06-20T23:56:31.245Z,4.40
2019-06-20T23:59:04.455Z,4.65
